sensor_id;sensor_type;location;lat;lon;timestamp;P1;durP1;ratioP1;P2;durP2;ratioP2
5876;SDS011;2964;42.144;24.730;2023-04-16T00:00:13;4.37;;;3.93;;
5876;SDS011;2964;42.144;24.730;2023-04-16T00:02:40;5.33;;;3.90;;
5876;SDS011;2964;42.144;24.730;2023-04-16T00:05:07;4.83;;;4.40;;
5876;SDS011;2964;42.144;24.730;2023-04-16T00:07:34;4.17;;;3.87;;
5876;SDS011;2964;42.144;24.730;2023-04-16T00:10:02;4.27;;;3.90;;
5876;SDS011;2964;42.144;24.730;2023-04-16T00:12:29;5.93;;;4.03;;
5876;SDS011;2964;42.144;24.730;2023-04-16T00:14:56;4.30;;;3.90;;
5876;SDS011;2964;42.144;24.730;2023-04-16T00:17:22;4.50;;;4.20;;
5876;SDS011;2964;42.144;24.730;2023-04-16T00:19:49;6.93;;;4.77;;
5876;SDS011;2964;42.144;24.730;2023-04-16T00:22:16;4.83;;;4.27;;
5876;SDS011;2964;42.144;24.730;2023-04-16T00:24:42;7.40;;;4.63;;
5876;SDS011;2964;42.144;24.730;2023-04-16T00:27:11;7.77;;;4.10;;
5876;SDS011;2964;42.144;24.730;2023-04-16T00:29:37;4.67;;;4.00;;
5876;SDS011;2964;42.144;24.730;2023-04-16T00:32:04;12.73;;;3.90;;
5876;SDS011;2964;42.144;24.730;2023-04-16T00:34:31;6.93;;;4.30;;
5876;SDS011;2964;42.144;24.730;2023-04-16T00:36:58;4.30;;;3.87;;
5876;SDS011;2964;42.144;24.730;2023-04-16T00:39:24;6.43;;;4.30;;
5876;SDS011;2964;42.144;24.730;2023-04-16T00:41:51;5.13;;;3.23;;
5876;SDS011;2964;42.144;24.730;2023-04-16T00:44:19;5.40;;;3.93;;
5876;SDS011;2964;42.144;24.730;2023-04-16T00:46:46;7.03;;;3.87;;
5876;SDS011;2964;42.144;24.730;2023-04-16T00:49:12;3.90;;;3.50;;
5876;SDS011;2964;42.144;24.730;2023-04-16T00:51:40;9.90;;;4.00;;
5876;SDS011;2964;42.144;24.730;2023-04-16T00:54:06;4.40;;;3.93;;
5876;SDS011;2964;42.144;24.730;2023-04-16T00:56:33;4.77;;;3.70;;
5876;SDS011;2964;42.144;24.730;2023-04-16T00:59:01;4.83;;;4.43;;
5876;SDS011;2964;42.144;24.730;2023-04-16T01:01:29;4.87;;;4.10;;
5876;SDS011;2964;42.144;24.730;2023-04-16T01:03:55;6.10;;;4.57;;
5876;SDS011;2964;42.144;24.730;2023-04-16T01:06:22;4.20;;;3.90;;
5876;SDS011;2964;42.144;24.730;2023-04-16T01:08:49;5.97;;;3.67;;
5876;SDS011;2964;42.144;24.730;2023-04-16T01:11:15;4.20;;;3.90;;
5876;SDS011;2964;42.144;24.730;2023-04-16T01:13:42;4.07;;;3.80;;
5876;SDS011;2964;42.144;24.730;2023-04-16T01:16:09;7.03;;;5.07;;
5876;SDS011;2964;42.144;24.730;2023-04-16T01:18:38;5.70;;;5.17;;
5876;SDS011;2964;42.144;24.730;2023-04-16T01:21:06;5.23;;;4.70;;
5876;SDS011;2964;42.144;24.730;2023-04-16T01:23:33;6.40;;;5.53;;
5876;SDS011;2964;42.144;24.730;2023-04-16T01:26:00;5.10;;;4.70;;
5876;SDS011;2964;42.144;24.730;2023-04-16T01:28:27;5.80;;;5.30;;
5876;SDS011;2964;42.144;24.730;2023-04-16T01:30:53;4.73;;;4.43;;
5876;SDS011;2964;42.144;24.730;2023-04-16T01:33:20;9.47;;;5.17;;
5876;SDS011;2964;42.144;24.730;2023-04-16T01:35:47;5.00;;;4.70;;
5876;SDS011;2964;42.144;24.730;2023-04-16T01:38:15;7.40;;;5.30;;
5876;SDS011;2964;42.144;24.730;2023-04-16T01:40:42;5.23;;;4.60;;
5876;SDS011;2964;42.144;24.730;2023-04-16T01:43:08;5.17;;;4.43;;
5876;SDS011;2964;42.144;24.730;2023-04-16T01:45:35;8.07;;;5.13;;
5876;SDS011;2964;42.144;24.730;2023-04-16T01:48:02;12.80;;;4.93;;
5876;SDS011;2964;42.144;24.730;2023-04-16T01:50:29;6.23;;;5.47;;
5876;SDS011;2964;42.144;24.730;2023-04-16T01:52:56;5.60;;;5.20;;
5876;SDS011;2964;42.144;24.730;2023-04-16T01:55:24;6.20;;;5.47;;
5876;SDS011;2964;42.144;24.730;2023-04-16T01:57:51;6.00;;;5.10;;
5876;SDS011;2964;42.144;24.730;2023-04-16T02:00:18;5.50;;;5.00;;
5876;SDS011;2964;42.144;24.730;2023-04-16T02:02:44;5.43;;;4.87;;
5876;SDS011;2964;42.144;24.730;2023-04-16T02:05:13;4.97;;;4.53;;
5876;SDS011;2964;42.144;24.730;2023-04-16T02:07:39;7.00;;;4.90;;
5876;SDS011;2964;42.144;24.730;2023-04-16T02:10:06;4.77;;;4.37;;
5876;SDS011;2964;42.144;24.730;2023-04-16T02:12:35;5.57;;;5.07;;
5876;SDS011;2964;42.144;24.730;2023-04-16T02:15:02;8.90;;;4.47;;
5876;SDS011;2964;42.144;24.730;2023-04-16T02:17:30;5.30;;;4.90;;
5876;SDS011;2964;42.144;24.730;2023-04-16T02:19:56;7.13;;;4.80;;
5876;SDS011;2964;42.144;24.730;2023-04-16T02:22:23;7.77;;;5.13;;
5876;SDS011;2964;42.144;24.730;2023-04-16T02:24:50;7.40;;;4.57;;
5876;SDS011;2964;42.144;24.730;2023-04-16T02:27:16;5.87;;;5.07;;
5876;SDS011;2964;42.144;24.730;2023-04-16T02:29:44;7.23;;;5.10;;
5876;SDS011;2964;42.144;24.730;2023-04-16T02:32:11;5.47;;;4.97;;
5876;SDS011;2964;42.144;24.730;2023-04-16T02:34:38;5.13;;;4.73;;
5876;SDS011;2964;42.144;24.730;2023-04-16T02:37:05;5.30;;;4.80;;
5876;SDS011;2964;42.144;24.730;2023-04-16T02:39:32;6.13;;;5.10;;
5876;SDS011;2964;42.144;24.730;2023-04-16T02:41:59;6.80;;;4.63;;
5876;SDS011;2964;42.144;24.730;2023-04-16T02:44:26;6.77;;;5.93;;
5876;SDS011;2964;42.144;24.730;2023-04-16T02:46:54;7.80;;;4.73;;
5876;SDS011;2964;42.144;24.730;2023-04-16T02:49:21;8.30;;;5.43;;
5876;SDS011;2964;42.144;24.730;2023-04-16T02:51:48;5.87;;;5.17;;
5876;SDS011;2964;42.144;24.730;2023-04-16T02:54:14;6.47;;;5.37;;
5876;SDS011;2964;42.144;24.730;2023-04-16T02:56:41;9.03;;;5.30;;
5876;SDS011;2964;42.144;24.730;2023-04-16T02:59:08;5.47;;;4.93;;
5876;SDS011;2964;42.144;24.730;2023-04-16T03:01:34;7.50;;;5.50;;
5876;SDS011;2964;42.144;24.730;2023-04-16T03:04:02;5.40;;;4.87;;
5876;SDS011;2964;42.144;24.730;2023-04-16T03:06:29;6.23;;;5.43;;
5876;SDS011;2964;42.144;24.730;2023-04-16T03:08:56;6.10;;;5.50;;
5876;SDS011;2964;42.144;24.730;2023-04-16T03:11:23;6.37;;;5.97;;
5876;SDS011;2964;42.144;24.730;2023-04-16T03:13:50;10.00;;;6.20;;
5876;SDS011;2964;42.144;24.730;2023-04-16T03:16:16;7.07;;;5.97;;
5876;SDS011;2964;42.144;24.730;2023-04-16T03:18:43;7.00;;;6.17;;
5876;SDS011;2964;42.144;24.730;2023-04-16T03:21:11;6.43;;;5.60;;
5876;SDS011;2964;42.144;24.730;2023-04-16T03:23:38;7.40;;;5.23;;
5876;SDS011;2964;42.144;24.730;2023-04-16T03:26:04;6.80;;;6.30;;
5876;SDS011;2964;42.144;24.730;2023-04-16T03:28:31;8.40;;;6.43;;
5876;SDS011;2964;42.144;24.730;2023-04-16T03:30:58;7.57;;;6.00;;
5876;SDS011;2964;42.144;24.730;2023-04-16T03:33:25;7.67;;;6.00;;
5876;SDS011;2964;42.144;24.730;2023-04-16T03:35:55;8.53;;;6.23;;
5876;SDS011;2964;42.144;24.730;2023-04-16T03:38:23;7.43;;;6.67;;
5876;SDS011;2964;42.144;24.730;2023-04-16T03:40:51;7.80;;;6.80;;
5876;SDS011;2964;42.144;24.730;2023-04-16T03:43:17;7.70;;;6.00;;
5876;SDS011;2964;42.144;24.730;2023-04-16T03:45:44;9.40;;;6.07;;
5876;SDS011;2964;42.144;24.730;2023-04-16T03:48:10;6.97;;;6.33;;
5876;SDS011;2964;42.144;24.730;2023-04-16T03:50:37;12.03;;;6.07;;
5876;SDS011;2964;42.144;24.730;2023-04-16T03:53:04;16.20;;;6.93;;
5876;SDS011;2964;42.144;24.730;2023-04-16T03:55:32;9.27;;;6.03;;
5876;SDS011;2964;42.144;24.730;2023-04-16T03:58:00;7.80;;;7.00;;
5876;SDS011;2964;42.144;24.730;2023-04-16T04:00:27;7.87;;;7.30;;
5876;SDS011;2964;42.144;24.730;2023-04-16T04:02:54;8.50;;;7.57;;
5876;SDS011;2964;42.144;24.730;2023-04-16T04:05:21;9.63;;;8.73;;
5876;SDS011;2964;42.144;24.730;2023-04-16T04:07:47;20.33;;;9.67;;
5876;SDS011;2964;42.144;24.730;2023-04-16T04:10:14;10.23;;;8.33;;
5876;SDS011;2964;42.144;24.730;2023-04-16T04:12:42;11.07;;;7.87;;
5876;SDS011;2964;42.144;24.730;2023-04-16T04:15:09;15.57;;;8.87;;
5876;SDS011;2964;42.144;24.730;2023-04-16T04:17:37;11.67;;;8.23;;
5876;SDS011;2964;42.144;24.730;2023-04-16T04:20:04;8.73;;;7.87;;
5876;SDS011;2964;42.144;24.730;2023-04-16T04:22:31;9.87;;;8.03;;
5876;SDS011;2964;42.144;24.730;2023-04-16T04:24:58;10.03;;;9.13;;
5876;SDS011;2964;42.144;24.730;2023-04-16T04:27:24;11.87;;;7.90;;
5876;SDS011;2964;42.144;24.730;2023-04-16T04:29:52;9.97;;;7.70;;
5876;SDS011;2964;42.144;24.730;2023-04-16T04:32:19;8.30;;;7.57;;
5876;SDS011;2964;42.144;24.730;2023-04-16T04:34:46;13.53;;;7.40;;
5876;SDS011;2964;42.144;24.730;2023-04-16T04:37:12;7.93;;;7.03;;
5876;SDS011;2964;42.144;24.730;2023-04-16T04:39:39;8.33;;;6.87;;
5876;SDS011;2964;42.144;24.730;2023-04-16T04:42:07;7.77;;;6.90;;
5876;SDS011;2964;42.144;24.730;2023-04-16T04:44:33;8.63;;;6.53;;
5876;SDS011;2964;42.144;24.730;2023-04-16T04:47:02;10.90;;;8.07;;
5876;SDS011;2964;42.144;24.730;2023-04-16T04:49:28;11.17;;;8.00;;
5876;SDS011;2964;42.144;24.730;2023-04-16T04:51:55;11.93;;;7.60;;
5876;SDS011;2964;42.144;24.730;2023-04-16T04:54:22;8.50;;;7.20;;
5876;SDS011;2964;42.144;24.730;2023-04-16T04:56:49;7.57;;;6.57;;
5876;SDS011;2964;42.144;24.730;2023-04-16T04:59:16;7.67;;;6.80;;
5876;SDS011;2964;42.144;24.730;2023-04-16T05:01:43;10.53;;;6.67;;
5876;SDS011;2964;42.144;24.730;2023-04-16T05:04:11;8.03;;;7.17;;
5876;SDS011;2964;42.144;24.730;2023-04-16T05:06:37;7.60;;;6.80;;
5876;SDS011;2964;42.144;24.730;2023-04-16T05:09:04;9.03;;;7.23;;
5876;SDS011;2964;42.144;24.730;2023-04-16T05:11:35;11.77;;;7.60;;
5876;SDS011;2964;42.144;24.730;2023-04-16T05:14:02;11.67;;;7.23;;
5876;SDS011;2964;42.144;24.730;2023-04-16T05:16:28;7.83;;;7.13;;
5876;SDS011;2964;42.144;24.730;2023-04-16T05:18:55;11.63;;;7.53;;
5876;SDS011;2964;42.144;24.730;2023-04-16T05:21:23;8.13;;;7.17;;
5876;SDS011;2964;42.144;24.730;2023-04-16T05:23:50;7.87;;;7.17;;
5876;SDS011;2964;42.144;24.730;2023-04-16T05:26:17;9.07;;;7.30;;
5876;SDS011;2964;42.144;24.730;2023-04-16T05:28:43;9.80;;;7.63;;
5876;SDS011;2964;42.144;24.730;2023-04-16T05:31:10;7.97;;;7.27;;
5876;SDS011;2964;42.144;24.730;2023-04-16T05:33:37;9.77;;;7.40;;
5876;SDS011;2964;42.144;24.730;2023-04-16T05:36:03;10.80;;;7.67;;
5876;SDS011;2964;42.144;24.730;2023-04-16T05:38:31;7.03;;;6.47;;
5876;SDS011;2964;42.144;24.730;2023-04-16T05:40:58;6.70;;;6.03;;
5876;SDS011;2964;42.144;24.730;2023-04-16T05:43:25;10.97;;;7.30;;
5876;SDS011;2964;42.144;24.730;2023-04-16T05:45:51;7.00;;;6.40;;
5876;SDS011;2964;42.144;24.730;2023-04-16T05:48:18;7.70;;;7.00;;
5876;SDS011;2964;42.144;24.730;2023-04-16T05:50:45;9.10;;;6.30;;
5876;SDS011;2964;42.144;24.730;2023-04-16T05:53:11;6.90;;;6.17;;
5876;SDS011;2964;42.144;24.730;2023-04-16T05:55:40;8.13;;;7.20;;
5876;SDS011;2964;42.144;24.730;2023-04-16T05:58:07;6.67;;;6.07;;
5876;SDS011;2964;42.144;24.730;2023-04-16T06:00:33;7.30;;;6.13;;
5876;SDS011;2964;42.144;24.730;2023-04-16T06:03:01;9.80;;;5.67;;
5876;SDS011;2964;42.144;24.730;2023-04-16T06:05:28;5.77;;;5.27;;
5876;SDS011;2964;42.144;24.730;2023-04-16T06:07:54;6.53;;;6.03;;
5876;SDS011;2964;42.144;24.730;2023-04-16T06:10:21;8.17;;;5.60;;
5876;SDS011;2964;42.144;24.730;2023-04-16T06:12:49;8.00;;;5.37;;
5876;SDS011;2964;42.144;24.730;2023-04-16T06:15:16;5.47;;;5.07;;
5876;SDS011;2964;42.144;24.730;2023-04-16T06:17:43;10.03;;;5.47;;
5876;SDS011;2964;42.144;24.730;2023-04-16T06:20:10;7.77;;;5.27;;
5876;SDS011;2964;42.144;24.730;2023-04-16T06:22:37;5.53;;;5.10;;
5876;SDS011;2964;42.144;24.730;2023-04-16T06:25:05;5.17;;;4.73;;
5876;SDS011;2964;42.144;24.730;2023-04-16T06:27:32;7.60;;;5.03;;
5876;SDS011;2964;42.144;24.730;2023-04-16T06:30:00;5.40;;;4.97;;
5876;SDS011;2964;42.144;24.730;2023-04-16T06:32:26;5.03;;;4.73;;
5876;SDS011;2964;42.144;24.730;2023-04-16T06:34:53;6.37;;;5.67;;
5876;SDS011;2964;42.144;24.730;2023-04-16T06:37:20;8.77;;;6.13;;
5876;SDS011;2964;42.144;24.730;2023-04-16T06:39:47;7.30;;;5.63;;
5876;SDS011;2964;42.144;24.730;2023-04-16T06:42:13;5.83;;;5.33;;
5876;SDS011;2964;42.144;24.730;2023-04-16T06:44:40;6.40;;;5.67;;
5876;SDS011;2964;42.144;24.730;2023-04-16T06:47:08;6.03;;;5.50;;
5876;SDS011;2964;42.144;24.730;2023-04-16T06:49:35;5.97;;;5.35;;
5876;SDS011;2964;42.144;24.730;2023-04-16T06:52:03;6.07;;;5.28;;
5876;SDS011;2964;42.144;24.730;2023-04-16T06:54:29;5.65;;;5.32;;
5876;SDS011;2964;42.144;24.730;2023-04-16T06:56:56;6.03;;;5.15;;
5876;SDS011;2964;42.144;24.730;2023-04-16T06:59:23;6.57;;;6.00;;
5876;SDS011;2964;42.144;24.730;2023-04-16T07:01:50;6.10;;;5.50;;
5876;SDS011;2964;42.144;24.730;2023-04-16T07:04:18;5.75;;;5.28;;
5876;SDS011;2964;42.144;24.730;2023-04-16T07:06:45;5.72;;;5.28;;
5876;SDS011;2964;42.144;24.730;2023-04-16T07:09:11;5.85;;;5.30;;
5876;SDS011;2964;42.144;24.730;2023-04-16T07:11:38;6.43;;;5.53;;
5876;SDS011;2964;42.144;24.730;2023-04-16T07:14:05;6.93;;;5.60;;
5876;SDS011;2964;42.144;24.730;2023-04-16T07:16:32;6.90;;;6.25;;
5876;SDS011;2964;42.144;24.730;2023-04-16T07:18:58;6.38;;;5.82;;
5876;SDS011;2964;42.144;24.730;2023-04-16T07:21:26;5.93;;;5.47;;
5876;SDS011;2964;42.144;24.730;2023-04-16T07:23:53;10.05;;;5.75;;
5876;SDS011;2964;42.144;24.730;2023-04-16T07:26:20;6.97;;;5.38;;
5876;SDS011;2964;42.144;24.730;2023-04-16T07:28:46;6.88;;;5.30;;
5876;SDS011;2964;42.144;24.730;2023-04-16T07:31:13;6.32;;;5.30;;
5876;SDS011;2964;42.144;24.730;2023-04-16T07:33:40;6.15;;;5.50;;
5876;SDS011;2964;42.144;24.730;2023-04-16T07:36:06;5.90;;;5.47;;
5876;SDS011;2964;42.144;24.730;2023-04-16T07:38:35;7.45;;;5.85;;
5876;SDS011;2964;42.144;24.730;2023-04-16T07:41:02;7.15;;;5.40;;
5876;SDS011;2964;42.144;24.730;2023-04-16T07:43:29;7.00;;;6.13;;
5876;SDS011;2964;42.144;24.730;2023-04-16T07:45:55;7.72;;;6.28;;
5876;SDS011;2964;42.144;24.730;2023-04-16T07:48:22;7.88;;;5.53;;
5876;SDS011;2964;42.144;24.730;2023-04-16T07:50:49;5.95;;;5.55;;
5876;SDS011;2964;42.144;24.730;2023-04-16T07:53:15;6.60;;;6.00;;
5876;SDS011;2964;42.144;24.730;2023-04-16T07:55:43;6.75;;;6.00;;
5876;SDS011;2964;42.144;24.730;2023-04-16T07:58:10;7.25;;;6.60;;
5876;SDS011;2964;42.144;24.730;2023-04-16T08:00:37;6.95;;;6.20;;
5876;SDS011;2964;42.144;24.730;2023-04-16T08:03:04;8.82;;;6.13;;
5876;SDS011;2964;42.144;24.730;2023-04-16T08:05:31;5.78;;;5.28;;
5876;SDS011;2964;42.144;24.730;2023-04-16T08:07:58;7.05;;;5.47;;
5876;SDS011;2964;42.144;24.730;2023-04-16T08:10:25;8.10;;;5.83;;
5876;SDS011;2964;42.144;24.730;2023-04-16T08:12:53;5.70;;;5.17;;
5876;SDS011;2964;42.144;24.730;2023-04-16T08:15:19;8.40;;;4.90;;
5876;SDS011;2964;42.144;24.730;2023-04-16T08:17:46;5.63;;;5.13;;
5876;SDS011;2964;42.144;24.730;2023-04-16T08:20:13;5.33;;;4.70;;
5876;SDS011;2964;42.144;24.730;2023-04-16T08:22:40;6.20;;;5.67;;
5876;SDS011;2964;42.144;24.730;2023-04-16T08:25:07;7.50;;;5.37;;
5876;SDS011;2964;42.144;24.730;2023-04-16T08:27:34;6.57;;;5.93;;
5876;SDS011;2964;42.144;24.730;2023-04-16T08:30:02;10.27;;;6.67;;
5876;SDS011;2964;42.144;24.730;2023-04-16T08:32:30;9.63;;;6.50;;
5876;SDS011;2964;42.144;24.730;2023-04-16T08:34:56;7.50;;;5.73;;
5876;SDS011;2964;42.144;24.730;2023-04-16T08:37:23;6.17;;;5.77;;
5876;SDS011;2964;42.144;24.730;2023-04-16T08:39:50;6.90;;;5.53;;
5876;SDS011;2964;42.144;24.730;2023-04-16T08:42:17;7.67;;;6.50;;
5876;SDS011;2964;42.144;24.730;2023-04-16T08:44:48;6.87;;;5.50;;
5876;SDS011;2964;42.144;24.730;2023-04-16T08:47:23;7.37;;;5.90;;
5876;SDS011;2964;42.144;24.730;2023-04-16T08:49:55;6.20;;;5.53;;
5876;SDS011;2964;42.144;24.730;2023-04-16T08:52:24;7.13;;;5.67;;
5876;SDS011;2964;42.144;24.730;2023-04-16T08:54:55;7.97;;;5.20;;
5876;SDS011;2964;42.144;24.730;2023-04-16T08:57:26;5.93;;;5.27;;
5876;SDS011;2964;42.144;24.730;2023-04-16T09:00:00;6.70;;;5.07;;
5876;SDS011;2964;42.144;24.730;2023-04-16T09:02:29;5.67;;;5.10;;
5876;SDS011;2964;42.144;24.730;2023-04-16T09:04:56;5.83;;;5.27;;
5876;SDS011;2964;42.144;24.730;2023-04-16T09:07:25;8.35;;;6.90;;
5876;SDS011;2964;42.144;24.730;2023-04-16T09:09:54;6.88;;;6.18;;
5876;SDS011;2964;42.144;24.730;2023-04-16T09:12:22;5.65;;;5.15;;
5876;SDS011;2964;42.144;24.730;2023-04-16T09:14:49;8.77;;;6.22;;
5876;SDS011;2964;42.144;24.730;2023-04-16T09:17:16;5.93;;;5.43;;
5876;SDS011;2964;42.144;24.730;2023-04-16T09:19:45;6.20;;;5.70;;
5876;SDS011;2964;42.144;24.730;2023-04-16T09:22:11;5.53;;;5.00;;
5876;SDS011;2964;42.144;24.730;2023-04-16T09:24:38;5.18;;;4.63;;
5876;SDS011;2964;42.144;24.730;2023-04-16T09:27:06;5.80;;;5.20;;
5876;SDS011;2964;42.144;24.730;2023-04-16T09:29:33;5.50;;;4.88;;
5876;SDS011;2964;42.144;24.730;2023-04-16T09:32:01;5.40;;;5.10;;
5876;SDS011;2964;42.144;24.730;2023-04-16T09:34:30;4.93;;;4.53;;
5876;SDS011;2964;42.144;24.730;2023-04-16T09:39:53;5.65;;;5.15;;
5876;SDS011;2964;42.144;24.730;2023-04-16T09:42:22;5.80;;;5.40;;
5876;SDS011;2964;42.144;24.730;2023-04-16T09:44:51;5.63;;;5.10;;
5876;SDS011;2964;42.144;24.730;2023-04-16T09:47:18;5.03;;;4.73;;
5876;SDS011;2964;42.144;24.730;2023-04-16T09:49:45;5.90;;;5.40;;
5876;SDS011;2964;42.144;24.730;2023-04-16T09:52:12;6.05;;;4.85;;
5876;SDS011;2964;42.144;24.730;2023-04-16T09:54:44;5.05;;;4.68;;
5876;SDS011;2964;42.144;24.730;2023-04-16T09:57:13;5.97;;;5.40;;
5876;SDS011;2964;42.144;24.730;2023-04-16T09:59:40;6.43;;;5.00;;
5876;SDS011;2964;42.144;24.730;2023-04-16T10:02:06;5.03;;;4.60;;
5876;SDS011;2964;42.144;24.730;2023-04-16T10:04:43;5.10;;;4.60;;
5876;SDS011;2964;42.144;24.730;2023-04-16T10:07:11;5.07;;;4.57;;
5876;SDS011;2964;42.144;24.730;2023-04-16T10:09:38;5.97;;;5.17;;
5876;SDS011;2964;42.144;24.730;2023-04-16T10:12:06;5.03;;;4.73;;
5876;SDS011;2964;42.144;24.730;2023-04-16T10:14:34;5.00;;;4.27;;
5876;SDS011;2964;42.144;24.730;2023-04-16T10:17:01;5.10;;;4.63;;
5876;SDS011;2964;42.144;24.730;2023-04-16T10:19:29;6.27;;;4.97;;
5876;SDS011;2964;42.144;24.730;2023-04-16T10:21:57;4.17;;;3.90;;
5876;SDS011;2964;42.144;24.730;2023-04-16T10:24:24;5.40;;;4.33;;
5876;SDS011;2964;42.144;24.730;2023-04-16T10:26:51;6.60;;;5.13;;
5876;SDS011;2964;42.144;24.730;2023-04-16T10:29:18;4.73;;;4.33;;
5876;SDS011;2964;42.144;24.730;2023-04-16T10:31:47;5.33;;;4.83;;
5876;SDS011;2964;42.144;24.730;2023-04-16T10:34:14;4.97;;;4.57;;
5876;SDS011;2964;42.144;24.730;2023-04-16T10:36:42;5.87;;;5.47;;
5876;SDS011;2964;42.144;24.730;2023-04-16T10:39:14;6.53;;;4.60;;
5876;SDS011;2964;42.144;24.730;2023-04-16T10:41:43;4.57;;;4.23;;
5876;SDS011;2964;42.144;24.730;2023-04-16T10:44:10;5.67;;;4.83;;
5876;SDS011;2964;42.144;24.730;2023-04-16T10:46:38;5.43;;;4.97;;
5876;SDS011;2964;42.144;24.730;2023-04-16T10:49:13;5.63;;;5.13;;
5876;SDS011;2964;42.144;24.730;2023-04-16T10:51:41;5.70;;;5.27;;
5876;SDS011;2964;42.144;24.730;2023-04-16T10:54:21;7.30;;;5.40;;
5876;SDS011;2964;42.144;24.730;2023-04-16T10:56:50;6.10;;;5.00;;
5876;SDS011;2964;42.144;24.730;2023-04-16T10:59:18;5.43;;;5.00;;
5876;SDS011;2964;42.144;24.730;2023-04-16T11:01:49;5.73;;;4.83;;
5876;SDS011;2964;42.144;24.730;2023-04-16T11:07:05;5.33;;;4.80;;
5876;SDS011;2964;42.144;24.730;2023-04-16T11:09:51;5.60;;;5.17;;
5876;SDS011;2964;42.144;24.730;2023-04-16T11:12:22;8.37;;;4.83;;
5876;SDS011;2964;42.144;24.730;2023-04-16T11:14:52;8.63;;;4.97;;
5876;SDS011;2964;42.144;24.730;2023-04-16T11:17:20;6.27;;;5.00;;
5876;SDS011;2964;42.144;24.730;2023-04-16T11:19:48;8.03;;;4.90;;
5876;SDS011;2964;42.144;24.730;2023-04-16T11:22:16;5.90;;;5.13;;
5876;SDS011;2964;42.144;24.730;2023-04-16T11:24:43;6.07;;;5.30;;
5876;SDS011;2964;42.144;24.730;2023-04-16T11:27:11;7.97;;;5.40;;
5876;SDS011;2964;42.144;24.730;2023-04-16T11:29:38;7.37;;;5.73;;
5876;SDS011;2964;42.144;24.730;2023-04-16T11:32:05;8.20;;;5.80;;
5876;SDS011;2964;42.144;24.730;2023-04-16T11:34:32;5.93;;;4.77;;
5876;SDS011;2964;42.144;24.730;2023-04-16T11:37:00;7.03;;;5.53;;
5876;SDS011;2964;42.144;24.730;2023-04-16T11:39:27;9.03;;;5.00;;
5876;SDS011;2964;42.144;24.730;2023-04-16T11:41:53;9.63;;;5.40;;
5876;SDS011;2964;42.144;24.730;2023-04-16T11:44:20;6.40;;;5.80;;
5876;SDS011;2964;42.144;24.730;2023-04-16T11:46:49;5.93;;;5.33;;
5876;SDS011;2964;42.144;24.730;2023-04-16T11:49:17;6.57;;;5.37;;
5876;SDS011;2964;42.144;24.730;2023-04-16T11:51:52;7.00;;;6.30;;
5876;SDS011;2964;42.144;24.730;2023-04-16T11:54:20;6.37;;;5.57;;
5876;SDS011;2964;42.144;24.730;2023-04-16T11:56:48;6.27;;;5.67;;
5876;SDS011;2964;42.144;24.730;2023-04-16T11:59:16;6.90;;;5.53;;
5876;SDS011;2964;42.144;24.730;2023-04-16T12:01:48;8.13;;;6.03;;
5876;SDS011;2964;42.144;24.730;2023-04-16T12:04:15;13.07;;;6.40;;
5876;SDS011;2964;42.144;24.730;2023-04-16T12:09:31;9.47;;;5.27;;
5876;SDS011;2964;42.144;24.730;2023-04-16T12:11:59;9.97;;;6.07;;
5876;SDS011;2964;42.144;24.730;2023-04-16T12:14:26;7.27;;;5.17;;
5876;SDS011;2964;42.144;24.730;2023-04-16T12:16:53;7.27;;;5.07;;
5876;SDS011;2964;42.144;24.730;2023-04-16T12:19:20;9.43;;;5.33;;
5876;SDS011;2964;42.144;24.730;2023-04-16T12:21:48;6.33;;;4.97;;
5876;SDS011;2964;42.144;24.730;2023-04-16T12:24:16;7.23;;;5.23;;
5876;SDS011;2964;42.144;24.730;2023-04-16T12:26:51;9.83;;;5.53;;
5876;SDS011;2964;42.144;24.730;2023-04-16T12:29:21;5.70;;;5.20;;
5876;SDS011;2964;42.144;24.730;2023-04-16T12:31:49;6.90;;;6.10;;
5876;SDS011;2964;42.144;24.730;2023-04-16T12:34:17;9.07;;;5.10;;
5876;SDS011;2964;42.144;24.730;2023-04-16T12:36:45;5.90;;;5.50;;
5876;SDS011;2964;42.144;24.730;2023-04-16T12:39:13;8.83;;;4.47;;
5876;SDS011;2964;42.144;24.730;2023-04-16T12:41:41;8.43;;;5.73;;
5876;SDS011;2964;42.144;24.730;2023-04-16T12:44:10;6.67;;;5.63;;
5876;SDS011;2964;42.144;24.730;2023-04-16T12:46:42;6.03;;;5.43;;
5876;SDS011;2964;42.144;24.730;2023-04-16T12:49:10;8.57;;;5.67;;
5876;SDS011;2964;42.144;24.730;2023-04-16T12:51:37;9.53;;;5.93;;
5876;SDS011;2964;42.144;24.730;2023-04-16T12:54:05;9.57;;;6.80;;
5876;SDS011;2964;42.144;24.730;2023-04-16T12:56:33;9.03;;;6.13;;
5876;SDS011;2964;42.144;24.730;2023-04-16T12:59:00;7.47;;;5.50;;
5876;SDS011;2964;42.144;24.730;2023-04-16T13:01:28;9.57;;;6.13;;
5876;SDS011;2964;42.144;24.730;2023-04-16T13:03:55;8.03;;;6.47;;
5876;SDS011;2964;42.144;24.730;2023-04-16T13:06:22;13.43;;;6.60;;
5876;SDS011;2964;42.144;24.730;2023-04-16T13:08:48;10.97;;;5.80;;
5876;SDS011;2964;42.144;24.730;2023-04-16T13:11:15;10.73;;;6.17;;
5876;SDS011;2964;42.144;24.730;2023-04-16T13:13:43;6.67;;;6.17;;
5876;SDS011;2964;42.144;24.730;2023-04-16T13:16:09;8.13;;;6.60;;
5876;SDS011;2964;42.144;24.730;2023-04-16T13:18:38;6.47;;;5.30;;
5876;SDS011;2964;42.144;24.730;2023-04-16T13:21:05;5.90;;;5.10;;
5876;SDS011;2964;42.144;24.730;2023-04-16T13:23:31;5.60;;;5.20;;
5876;SDS011;2964;42.144;24.730;2023-04-16T13:25:59;6.40;;;5.70;;
5876;SDS011;2964;42.144;24.730;2023-04-16T13:28:26;8.83;;;6.67;;
5876;SDS011;2964;42.144;24.730;2023-04-16T13:30:52;5.43;;;4.93;;
5876;SDS011;2964;42.144;24.730;2023-04-16T13:33:19;5.37;;;5.00;;
5876;SDS011;2964;42.144;24.730;2023-04-16T13:35:48;4.90;;;4.50;;
5876;SDS011;2964;42.144;24.730;2023-04-16T13:38:15;6.13;;;4.27;;
5876;SDS011;2964;42.144;24.730;2023-04-16T13:40:42;4.40;;;4.10;;
5876;SDS011;2964;42.144;24.730;2023-04-16T13:43:09;7.70;;;5.07;;
5876;SDS011;2964;42.144;24.730;2023-04-16T13:45:38;4.70;;;4.30;;
5876;SDS011;2964;42.144;24.730;2023-04-16T13:48:05;5.30;;;4.90;;
5876;SDS011;2964;42.144;24.730;2023-04-16T13:50:32;4.97;;;4.47;;
5876;SDS011;2964;42.144;24.730;2023-04-16T13:53:00;6.17;;;5.80;;
5876;SDS011;2964;42.144;24.730;2023-04-16T13:55:29;6.00;;;4.97;;
5876;SDS011;2964;42.144;24.730;2023-04-16T13:57:56;5.50;;;5.00;;
5876;SDS011;2964;42.144;24.730;2023-04-16T14:00:22;6.67;;;4.33;;
5876;SDS011;2964;42.144;24.730;2023-04-16T14:02:51;5.07;;;4.67;;
5876;SDS011;2964;42.144;24.730;2023-04-16T14:05:18;8.10;;;4.63;;
5876;SDS011;2964;42.144;24.730;2023-04-16T14:07:44;5.13;;;4.53;;
5876;SDS011;2964;42.144;24.730;2023-04-16T14:10:12;5.67;;;4.67;;
5876;SDS011;2964;42.144;24.730;2023-04-16T14:12:39;7.83;;;4.87;;
5876;SDS011;2964;42.144;24.730;2023-04-16T14:15:06;5.63;;;4.93;;
5876;SDS011;2964;42.144;24.730;2023-04-16T14:17:34;5.53;;;4.67;;
5876;SDS011;2964;42.144;24.730;2023-04-16T14:20:01;6.03;;;5.50;;
5876;SDS011;2964;42.144;24.730;2023-04-16T14:22:29;6.30;;;5.83;;
5876;SDS011;2964;42.144;24.730;2023-04-16T14:24:55;7.00;;;5.87;;
5876;SDS011;2964;42.144;24.730;2023-04-16T14:27:23;9.00;;;6.33;;
5876;SDS011;2964;42.144;24.730;2023-04-16T14:29:50;9.17;;;6.43;;
5876;SDS011;2964;42.144;24.730;2023-04-16T14:32:17;12.00;;;6.90;;
5876;SDS011;2964;42.144;24.730;2023-04-16T14:34:43;8.63;;;6.53;;
5876;SDS011;2964;42.144;24.730;2023-04-16T14:37:10;13.40;;;6.40;;
5876;SDS011;2964;42.144;24.730;2023-04-16T14:39:37;7.57;;;6.23;;
5876;SDS011;2964;42.144;24.730;2023-04-16T14:42:04;16.40;;;7.03;;
5876;SDS011;2964;42.144;24.730;2023-04-16T14:44:32;6.87;;;6.17;;
5876;SDS011;2964;42.144;24.730;2023-04-16T14:46:59;8.97;;;6.73;;
5876;SDS011;2964;42.144;24.730;2023-04-16T14:49:26;8.83;;;6.40;;
5876;SDS011;2964;42.144;24.730;2023-04-16T14:51:52;7.27;;;5.30;;
5876;SDS011;2964;42.144;24.730;2023-04-16T14:54:20;14.37;;;5.93;;
5876;SDS011;2964;42.144;24.730;2023-04-16T14:56:47;7.80;;;6.60;;
5876;SDS011;2964;42.144;24.730;2023-04-16T14:59:15;10.67;;;6.27;;
5876;SDS011;2964;42.144;24.730;2023-04-16T15:01:44;6.53;;;5.93;;
5876;SDS011;2964;42.144;24.730;2023-04-16T15:04:11;8.87;;;5.53;;
5876;SDS011;2964;42.144;24.730;2023-04-16T15:06:38;6.60;;;5.17;;
5876;SDS011;2964;42.144;24.730;2023-04-16T15:09:05;11.03;;;6.93;;